Hundvaag 1 weather for Mar 2010
Month no. 273
Obs.
Da.
Temp. Dew Point Precip. Wind
Speed
Wind gusts Cloud cover Press. Humidity Wind dir. Sunny OPT
01.03.2010 -1,0 -4,3 0,0 9,3 9,3 10 994,8 78,0 247,5 1 72,5 %
02.03.2010 -1,6 -3,6 0,3 6,4 6,4 10 1012,4 86,0 180,0   75,0 %
03.03.2010 0,6 -1,6 1,3 9,3 9,3 3 1020,2 85,0 270,0 1 57,5 %
04.03.2010 -3,7 -6,3 0,7 5,6 5,6 10 1025,6 82,0 292,5 1 72,5 %
05.03.2010 -0,4 -3,3 0,0 13,0 18,7 0 1020,9 81,0 135,0 1 45,0 %
06.03.2010 -1,0 -6,3 10,0 0,0 0,0 1 1031,7 67,0 135,0 1 47,5 %
07.03.2010 0,8 -1,9 0,0 7,6 7,6 1 1034,8 82,0 112,5   52,5 %
08.03.2010 3,1 1,3 0,9 2,1 2,1 0 1033,7 88,0 292,5   57,5 %
09.03.2010 2,4 0,8 0,1 0,0 0,0 0 1032,1 89,0 45,0 1 55,0 %
10.03.2010 3,3 1,3 0,1 0,0 0,0 0 1032,1 87,0 337,5 1 57,5 %
11.03.2010 5,2 3,2 0,0 0,0 0,0 0 1022,6 87,0 157,5   60,0 %
12.03.2010 3,8 2,3 1,5 12,6 12,6 1 1015,1 90,0 292,5 1 52,5 %
13.03.2010 3,9 2,3 0,2 13,0 13,4 0 1016,5 89,0 270,0 1 50,0 %
14.03.2010 1,6 -0,7 0,8 5,6 5,6 5 1015,5 85,0 0,0 1 65,0 %
15.03.2010 -0,1 -2,2 1,5 5,6 5,6 3 1017,2 86,0 315,0 1 57,5 %
16.03.2010 1,1 -1,4 0,0 1,9 1,9 2 1021,6 83,0 247,5   60,0 %
17.03.2010 5,5 4,0 3,0 5,6 5,6 1 1017,2 90,0 157,5   57,5 %
18.03.2010 6,1 4,4 0,3 20,4 20,4 0 1012,8 89,0 135,0   47,5 %
19.03.2010 6,9 5,1 3,5 31,5 31,5 2 1000,9 88,0 157,5 1 42,5 %
20.03.2010 5,6 3,4 1,0 5,6 5,6 8 1001,6 86,0 157,5 1 77,5 %
21.03.2010 5,3 3,5 2,0 12,2 12,2 1 1002,3 88,0 202,5   55,0 %
22.03.2010 4,9 2,4 0,0 1,9 1,9 1 1017,2 84,0 112,5   60,0 %
23.03.2010 5,8 4,1 7,6 3,7 3,7 3 1008,7 89,0 247,5 1 60,0 %
24.03.2010 5,9 1,4 0,0 0,0 0,0 0 1012,8 73,0 112,5   60,0 %
25.03.2010 9,9 4,3 2,2 5,6 5,6 0 1011,1 68,0 112,5   60,0 %
26.03.2010 10,8 5,9 0,0 7,4 12,2 1 1002,3 72,0 112,5 1 62,5 %
27.03.2010 6,4 0,0 1,0 0,0 0,0 0 999,2 77,0   1 60,0 %
28.03.2010 6,1 0,0 0,0 0,0 0,0 0 997,9 81,0   1 60,0 %
29.03.2010 5,0 2,7 2,2 24,1 24,1 2 996,8 85,0 202,5   50,0 %
30.03.2010 2,1 -0,8 1,0 3,7 5,0 1 1005,0 81,0 0,0   55,0 %
31.03.2010 7,4 2,9 8,4 20,4 20,4 3 994,5 73,0 67,5 1 50,0 %
Avrg/Sum 3,6 0,7 49,6 7,6 7,9 2,2 1013,8 82,9 176,1 18 57,9 %